createdAt,value
2022-08-05T00:00:21.028Z,77.86
2022-08-05T00:02:51.496Z,75.64
2022-08-05T00:06:01.876Z,74.48
2022-08-05T00:08:32.694Z,74.69
2022-08-05T00:11:01.815Z,76.85
2022-08-05T00:13:39.064Z,77.43
2022-08-05T00:16:10.911Z,78.00
2022-08-05T00:18:44.934Z,78.48
2022-08-05T00:21:14.412Z,80.01
2022-08-05T00:23:46.043Z,80.44
2022-08-05T00:26:16.483Z,80.44
2022-08-05T00:28:45.927Z,81.67
2022-08-05T00:31:14.262Z,81.04
2022-08-05T00:34:56.128Z,81.19
2022-08-05T00:37:08.954Z,77.11
2022-08-05T00:39:16.320Z,77.25
2022-08-05T00:41:55.211Z,78.19
2022-08-05T00:44:30.682Z,80.29
2022-08-05T00:47:01.583Z,81.29
2022-08-05T00:49:32.659Z,81.53
2022-08-05T00:52:12.034Z,81.81
2022-08-05T00:54:39.480Z,82.16
2022-08-05T00:57:10.749Z,82.97
2022-08-05T00:59:44.536Z,83.21
2022-08-05T01:02:12.852Z,84.05
2022-08-05T01:04:43.943Z,84.43
2022-08-05T01:07:13.683Z,83.78
2022-08-05T01:09:42.022Z,84.29
2022-08-05T01:12:22.333Z,85.56
2022-08-05T01:14:56.184Z,86.40
2022-08-05T01:17:40.140Z,87.41
2022-08-05T01:20:27.118Z,88.34
2022-08-05T01:23:34.690Z,88.04
2022-08-05T01:26:02.320Z,88.57
2022-08-05T01:28:32.496Z,87.54
2022-08-05T01:31:44.678Z,87.54
2022-08-05T01:34:31.822Z,87.91
2022-08-05T01:37:11.183Z,88.97
2022-08-05T01:39:58.835Z,88.60
2022-08-05T01:42:28.408Z,89.55
2022-08-05T01:44:59.937Z,88.22
2022-08-05T01:47:39.418Z,87.81
2022-08-05T01:50:15.255Z,87.19
2022-08-05T01:52:49.875Z,87.50
2022-08-05T01:55:21.328Z,88.53
2022-08-05T01:58:13.193Z,88.27
2022-08-05T02:00:42.502Z,87.60
2022-08-05T02:03:29.230Z,87.03
2022-08-05T02:06:33.901Z,87.52
2022-08-05T02:08:58.137Z,88.20
2022-08-05T02:11:33.067Z,87.61
2022-08-05T02:14:12.923Z,87.84
2022-08-05T02:16:52.751Z,88.46
2022-08-05T02:19:46.900Z,88.69
2022-08-05T02:22:30.639Z,88.98
2022-08-05T02:25:12.913Z,88.70
2022-08-05T02:27:58.170Z,89.62
2022-08-05T02:30:34.446Z,90.26
2022-08-05T02:33:03.479Z,90.07
2022-08-05T02:35:37.554Z,89.92
2022-08-05T02:38:09.351Z,91.10
2022-08-05T02:40:41.668Z,91.33
2022-08-05T02:43:13.409Z,92.65
2022-08-05T02:45:52.573Z,94.22
2022-08-05T02:48:29.507Z,95.42
2022-08-05T02:51:03.060Z,96.87
2022-08-05T02:53:38.927Z,97.49
2022-08-05T02:56:15.812Z,97.51
2022-08-05T02:58:51.384Z,97.63
2022-08-05T03:01:25.023Z,98.66
2022-08-05T03:04:04.181Z,98.63
2022-08-05T03:06:57.016Z,98.06
2022-08-05T03:09:36.082Z,98.51
2022-08-05T03:12:06.370Z,98.66
2022-08-05T03:14:45.859Z,99.34
2022-08-05T03:17:16.642Z,99.55
2022-08-05T03:19:45.628Z,99.44
2022-08-05T03:22:16.740Z,98.69
2022-08-05T03:24:51.029Z,98.55
2022-08-05T03:27:21.236Z,98.14
2022-08-05T03:30:08.806Z,97.68
2022-08-05T03:32:37.469Z,98.12
2022-08-05T03:35:05.939Z,97.73
2022-08-05T03:37:45.734Z,97.96
2022-08-05T03:40:14.074Z,98.23
2022-08-05T03:42:52.365Z,99.05
2022-08-05T03:45:23.017Z,99.02
2022-08-05T03:47:51.949Z,98.90
2022-08-05T03:50:24.562Z,99.92
2022-08-05T03:54:59.977Z,100.00
2022-08-05T03:56:12.202Z,100.00
2022-08-05T03:58:47.836Z,100.00
2022-08-05T04:01:22.244Z,100.00
2022-08-05T04:04:09.540Z,100.00
2022-08-05T04:06:38.484Z,98.08
2022-08-05T04:09:26.042Z,97.20
2022-08-05T04:11:56.487Z,95.10
2022-08-05T04:14:30.536Z,95.06
2022-08-05T04:17:00.276Z,95.53
2022-08-05T04:19:29.850Z,96.43
2022-08-05T04:22:05.736Z,95.73
2022-08-05T04:24:43.933Z,95.45
2022-08-05T04:27:15.507Z,94.76
2022-08-05T04:29:42.808Z,94.11
2022-08-05T04:32:10.624Z,93.22
2022-08-05T04:34:42.918Z,91.58
2022-08-05T04:37:11.332Z,91.48
2022-08-05T04:39:39.149Z,91.35
2022-08-05T04:42:07.790Z,90.72
2022-08-05T04:44:36.546Z,87.62
2022-08-05T04:47:09.648Z,88.19
2022-08-05T04:50:02.659Z,88.68
2022-08-05T04:52:27.390Z,89.82
2022-08-05T04:54:57.478Z,88.71
2022-08-05T04:57:29.089Z,87.65
2022-08-05T04:59:58.544Z,87.18
2022-08-05T05:02:41.245Z,84.33
2022-08-05T05:05:25.955Z,83.27
2022-08-05T05:08:01.642Z,83.76
2022-08-05T05:10:39.579Z,82.03
2022-08-05T05:13:19.427Z,80.97
2022-08-05T05:15:57.267Z,81.27
2022-08-05T05:18:33.269Z,80.64
2022-08-05T05:21:02.243Z,79.80
2022-08-05T05:24:01.613Z,80.01
2022-08-05T05:26:18.300Z,77.47
2022-08-05T05:28:45.671Z,77.43
2022-08-05T05:31:13.455Z,75.95
2022-08-05T05:33:58.643Z,76.41
2022-08-05T05:36:28.597Z,74.10
2022-08-05T05:38:57.959Z,74.07
2022-08-05T05:41:26.312Z,74.33
2022-08-05T05:44:26.995Z,74.26
2022-08-05T05:46:56.159Z,73.21
2022-08-05T05:49:25.249Z,72.56
2022-08-05T05:51:53.510Z,70.42
2022-08-05T05:54:21.339Z,68.89
2022-08-05T05:56:48.799Z,67.01
2022-08-05T05:59:18.381Z,67.35
2022-08-05T06:01:57.843Z,67.97
2022-08-05T06:04:25.419Z,68.19
2022-08-05T06:06:52.920Z,68.14
2022-08-05T06:09:26.504Z,65.28
2022-08-05T06:12:09.511Z,64.70
2022-08-05T06:14:37.158Z,64.73
2022-08-05T06:17:22.672Z,64.32
2022-08-05T06:19:57.001Z,65.20
2022-08-05T06:22:33.628Z,64.26
2022-08-05T06:25:24.488Z,63.53
2022-08-05T06:28:10.625Z,64.01
2022-08-05T06:30:36.736Z,65.51
2022-08-05T06:33:04.125Z,63.34
2022-08-05T06:36:07.251Z,64.47
2022-08-05T06:38:18.700Z,62.26
2022-08-05T06:41:07.807Z,60.67
2022-08-05T06:43:57.836Z,61.90
2022-08-05T06:46:29.815Z,59.02
2022-08-05T06:48:59.763Z,57.31
2022-08-05T06:51:30.245Z,58.15
2022-08-05T06:54:03.366Z,57.19
2022-08-05T06:56:34.610Z,58.61
2022-08-05T06:59:04.020Z,56.03
2022-08-05T07:01:37.200Z,57.58
2022-08-05T07:04:10.930Z,57.14
2022-08-05T07:06:43.050Z,57.02
2022-08-05T07:09:10.336Z,56.72
2022-08-05T07:11:39.878Z,54.63
2022-08-05T07:14:29.923Z,54.96
2022-08-05T07:18:01.493Z,53.84
2022-08-05T07:20:34.175Z,53.23
2022-08-05T07:22:38.165Z,55.61
2022-08-05T07:25:23.620Z,53.35
2022-08-05T07:27:57.687Z,53.25
2022-08-05T07:30:38.912Z,52.70
2022-08-05T07:33:10.568Z,51.42
2022-08-05T07:36:03.192Z,50.83
2022-08-05T07:38:33.446Z,49.80
2022-08-05T07:42:08.072Z,51.05
2022-08-05T07:43:56.793Z,49.58
2022-08-05T07:46:29.848Z,49.10
2022-08-05T07:49:05.540Z,47.98
2022-08-05T07:51:37.158Z,48.48
2022-08-05T07:54:12.743Z,47.80
2022-08-05T07:57:01.237Z,49.63
2022-08-05T07:59:38.825Z,47.65
2022-08-05T08:02:17.037Z,47.92
2022-08-05T08:04:48.429Z,47.08
2022-08-05T08:07:22.733Z,46.77
2022-08-05T08:09:52.884Z,43.82
2022-08-05T08:12:35.036Z,44.50
2022-08-05T08:15:14.136Z,44.94
2022-08-05T08:17:50.561Z,44.15
2022-08-05T08:20:45.358Z,44.37
2022-08-05T08:23:59.963Z,42.73
2022-08-05T08:25:59.945Z,42.53
2022-08-05T08:28:35.580Z,43.08
2022-08-05T08:31:09.025Z,42.87
2022-08-05T08:33:38.012Z,42.64
2022-08-05T08:38:57.260Z,38.37
2022-08-05T08:41:52.064Z,38.29
2022-08-05T08:45:24.750Z,36.21
2022-08-05T08:47:46.834Z,34.84
2022-08-05T08:50:30.011Z,34.47
2022-08-05T08:52:51.712Z,32.71
2022-08-05T08:56:02.976Z,33.09
2022-08-05T08:58:13.164Z,35.89
2022-08-05T09:00:41.999Z,33.69
2022-08-05T09:03:11.338Z,36.25
2022-08-05T09:06:09.094Z,32.48
2022-08-05T09:08:26.656Z,33.21
2022-08-05T09:10:58.994Z,33.52
2022-08-05T09:13:31.741Z,31.31
2022-08-05T09:16:16.742Z,31.30
2022-08-05T09:18:44.558Z,32.58
2022-08-05T09:21:20.650Z,32.27
2022-08-05T09:24:10.162Z,29.92
2022-08-05T09:26:37.900Z,32.87
2022-08-05T09:29:09.207Z,30.75
2022-08-05T09:32:40.378Z,29.93
2022-08-05T09:34:26.050Z,28.46
2022-08-05T09:36:56.156Z,30.66
2022-08-05T09:39:41.641Z,30.74
2022-08-05T09:42:23.141Z,31.80
2022-08-05T09:45:17.250Z,30.88
2022-08-05T09:47:55.388Z,31.48
2022-08-05T09:50:38.488Z,32.03
2022-08-05T09:53:23.125Z,31.40
2022-08-05T09:56:03.721Z,28.73
2022-08-05T09:58:41.995Z,29.12
2022-08-05T10:01:15.718Z,30.72
2022-08-05T10:04:12.423Z,31.90
2022-08-05T10:06:58.631Z,32.46
2022-08-05T10:09:29.423Z,31.71
2022-08-05T10:12:18.491Z,33.62
2022-08-05T10:15:29.651Z,31.04
2022-08-05T10:18:10.846Z,30.44
2022-08-05T10:20:39.550Z,30.24
2022-08-05T10:23:33.979Z,30.29
2022-08-05T10:26:03.385Z,29.39
2022-08-05T10:28:36.406Z,30.45
2022-08-05T10:32:50.751Z,29.97
2022-08-05T10:33:52.301Z,29.16
2022-08-05T10:36:23.763Z,27.31
2022-08-05T10:39:01.361Z,26.73
2022-08-05T10:41:49.048Z,25.86
2022-08-05T10:44:19.686Z,25.98
2022-08-05T10:46:58.655Z,23.50
2022-08-05T10:49:33.282Z,24.85
2022-08-05T10:52:49.504Z,23.46
2022-08-05T10:55:18.781Z,23.75
2022-08-05T10:57:51.250Z,20.96
2022-08-05T11:00:24.366Z,21.42
2022-08-05T11:03:25.673Z,23.69
2022-08-05T11:06:04.267Z,26.99
2022-08-05T11:08:37.120Z,23.75
2022-08-05T11:11:44.608Z,22.83
2022-08-05T11:14:57.759Z,22.41
2022-08-05T11:18:00.052Z,24.21
2022-08-05T11:20:37.296Z,19.74
2022-08-05T11:24:04.649Z,18.70
2022-08-05T11:26:40.332Z,18.85
2022-08-05T11:29:14.063Z,20.37
2022-08-05T11:31:58.329Z,22.15
2022-08-05T11:34:50.944Z,23.47
2022-08-05T11:38:30.133Z,24.72
2022-08-05T11:41:35.289Z,20.77
2022-08-05T11:44:06.292Z,18.90
2022-08-05T11:46:58.152Z,22.68
2022-08-05T11:49:34.037Z,23.14
2022-08-05T11:52:11.314Z,24.00
2022-08-05T11:54:41.394Z,22.54
2022-08-05T11:57:25.075Z,19.85
2022-08-05T11:59:56.565Z,17.96
2022-08-05T12:02:33.652Z,16.37
2022-08-05T12:05:08.252Z,15.47
2022-08-05T12:08:08.753Z,17.12
2022-08-05T12:10:45.965Z,20.37
2022-08-05T12:13:27.998Z,22.14
2022-08-05T12:16:14.934Z,20.73
2022-08-05T12:18:49.033Z,17.79
2022-08-05T12:21:43.715Z,17.52
2022-08-05T12:24:21.088Z,17.65
2022-08-05T12:26:55.279Z,15.14
2022-08-05T12:29:38.739Z,13.41
2022-08-05T12:32:09.610Z,15.62
2022-08-05T12:34:38.665Z,19.51
2022-08-05T12:37:17.265Z,22.31
2022-08-05T12:39:48.753Z,22.89
2022-08-05T12:42:20.906Z,24.40
2022-08-05T12:44:48.883Z,23.49
2022-08-05T12:47:30.676Z,22.77
2022-08-05T12:50:12.794Z,18.86
2022-08-05T12:52:42.513Z,17.70
2022-08-05T12:55:26.316Z,18.99
2022-08-05T12:58:50.285Z,17.21
2022-08-05T13:02:05.740Z,16.55
2022-08-05T13:03:41.511Z,17.87
2022-08-05T13:06:17.677Z,15.63
2022-08-05T13:08:50.892Z,15.42
2022-08-05T13:12:01.179Z,15.25
2022-08-05T13:14:24.909Z,16.53
2022-08-05T13:17:20.404Z,15.37
2022-08-05T13:20:01.031Z,12.96
2022-08-05T13:22:29.894Z,12.76
2022-08-05T13:25:05.089Z,14.34
2022-08-05T13:27:58.342Z,14.07
2022-08-05T13:30:34.659Z,13.60
2022-08-05T13:33:04.311Z,14.56
2022-08-05T13:35:47.114Z,15.68
2022-08-05T13:38:30.911Z,17.56
2022-08-05T13:41:06.097Z,16.24
2022-08-05T13:43:45.582Z,15.09
2022-08-05T13:46:37.920Z,13.48
2022-08-05T13:49:11.747Z,13.85
2022-08-05T13:51:46.264Z,15.03
2022-08-05T13:54:24.970Z,13.50
2022-08-05T13:56:53.563Z,13.33
2022-08-05T13:59:24.346Z,13.86
2022-08-05T14:01:57.470Z,16.13
2022-08-05T14:04:51.491Z,17.07
2022-08-05T14:08:01.174Z,16.85
2022-08-05T14:10:28.411Z,16.49
2022-08-05T14:12:57.109Z,16.47
2022-08-05T14:16:08.817Z,17.65
2022-08-05T14:18:17.797Z,19.93
2022-08-05T14:20:49.072Z,21.98
2022-08-05T14:23:25.489Z,23.10
2022-08-05T14:25:58.412Z,23.68
2022-08-05T14:28:30.610Z,22.69
2022-08-05T14:30:59.579Z,23.38
2022-08-05T14:33:32.642Z,23.72
2022-08-05T14:36:21.292Z,23.55
2022-08-05T14:38:49.800Z,24.45
2022-08-05T14:41:18.811Z,25.59
2022-08-05T14:43:59.271Z,24.25
2022-08-05T14:46:30.714Z,25.07
2022-08-05T14:49:06.670Z,26.45
2022-08-05T14:51:37.814Z,26.34
2022-08-05T14:54:27.172Z,23.81
2022-08-05T14:56:58.213Z,24.18
2022-08-05T14:59:29.641Z,22.05
2022-08-05T15:02:24.358Z,19.64
2022-08-05T15:04:53.407Z,17.87
2022-08-05T15:07:21.708Z,17.21
2022-08-05T15:10:09.769Z,16.91
2022-08-05T15:12:59.750Z,17.57
2022-08-05T15:15:53.847Z,18.43
2022-08-05T15:18:12.583Z,16.61
2022-08-05T15:20:42.153Z,17.07
2022-08-05T15:23:12.303Z,16.56
2022-08-05T15:25:52.073Z,17.60
2022-08-05T15:28:27.821Z,17.22
2022-08-05T15:30:55.547Z,18.86
2022-08-05T15:34:18.592Z,18.95
2022-08-05T15:36:17.422Z,17.70
2022-08-05T15:39:07.617Z,17.37
2022-08-05T15:41:58.531Z,16.72
2022-08-05T15:44:30.297Z,15.94
2022-08-05T15:46:59.338Z,16.46
2022-08-05T15:49:41.845Z,17.59
2022-08-05T15:52:16.843Z,19.34
2022-08-05T15:54:57.005Z,19.08
2022-08-05T15:57:33.076Z,19.15
2022-08-05T16:00:03.280Z,20.04
2022-08-05T16:02:32.290Z,21.85
2022-08-05T16:05:00.231Z,21.88
2022-08-05T16:07:31.717Z,20.24
2022-08-05T16:09:59.650Z,20.49
2022-08-05T16:12:27.542Z,20.22
2022-08-05T16:14:54.904Z,20.64
2022-08-05T16:17:22.947Z,20.40
2022-08-05T16:20:05.693Z,19.77
2022-08-05T16:22:38.736Z,19.31
2022-08-05T16:25:09.436Z,19.72
2022-08-05T16:27:59.830Z,20.34
2022-08-05T16:30:29.098Z,21.02
2022-08-05T16:32:57.860Z,20.73
2022-08-05T16:35:28.446Z,22.15
2022-08-05T16:38:16.199Z,23.61
2022-08-05T16:40:51.990Z,26.17
2022-08-05T16:43:24.022Z,28.95
2022-08-05T16:46:04.608Z,30.22
2022-08-05T16:48:36.369Z,31.64
2022-08-05T16:51:08.744Z,32.11
2022-08-05T16:54:05.650Z,32.64
2022-08-05T16:56:30.987Z,34.49
2022-08-05T16:58:59.159Z,34.60
2022-08-05T17:01:52.510Z,35.37
2022-08-05T17:04:18.911Z,35.74
2022-08-05T17:06:46.337Z,36.39
2022-08-05T17:09:21.149Z,36.14
2022-08-05T17:11:56.000Z,37.22
2022-08-05T17:14:34.546Z,37.39
2022-08-05T17:17:06.820Z,37.92
2022-08-05T17:19:43.875Z,37.70
2022-08-05T17:22:24.375Z,38.53
2022-08-05T17:24:57.103Z,38.54
2022-08-05T17:27:34.280Z,38.75
2022-08-05T17:30:12.171Z,38.30
2022-08-05T17:32:46.719Z,37.95
2022-08-05T17:35:15.890Z,38.57
2022-08-05T17:37:48.879Z,39.23
2022-08-05T17:40:22.320Z,39.05
2022-08-05T17:42:52.819Z,39.64
2022-08-05T17:45:22.570Z,39.96
2022-08-05T17:47:55.089Z,40.90
2022-08-05T17:50:28.046Z,41.03
2022-08-05T17:53:01.165Z,41.04
2022-08-05T17:55:37.257Z,41.63
2022-08-05T17:58:13.233Z,41.80
2022-08-05T18:00:50.962Z,42.16
2022-08-05T18:06:11.232Z,43.17
2022-08-05T18:08:44.555Z,43.29
2022-08-05T18:11:23.876Z,42.89
2022-08-05T18:14:00.412Z,43.46
2022-08-05T18:16:30.612Z,43.62
2022-08-05T18:18:57.908Z,43.69
2022-08-05T18:22:07.804Z,43.69
2022-08-05T18:24:15.523Z,44.58
2022-08-05T18:26:43.783Z,44.52
2022-08-05T18:29:11.383Z,44.80
2022-08-05T18:31:43.102Z,45.03
2022-08-05T18:34:12.177Z,45.15
2022-08-05T18:36:41.233Z,45.78
2022-08-05T18:39:41.794Z,45.52
2022-08-05T18:42:02.973Z,46.08
2022-08-05T18:44:49.220Z,46.66
2022-08-05T18:47:26.561Z,46.53
2022-08-05T18:50:13.224Z,46.74
2022-08-05T18:52:50.591Z,47.24
2022-08-05T18:55:21.697Z,48.17
2022-08-05T18:57:53.031Z,47.75
2022-08-05T19:00:29.030Z,47.64
2022-08-05T19:03:04.262Z,48.16
2022-08-05T19:06:11.915Z,48.08
2022-08-05T19:08:19.955Z,48.55
2022-08-05T19:10:50.131Z,49.09
2022-08-05T19:13:18.300Z,49.21
2022-08-05T19:15:59.713Z,49.63
2022-08-05T19:18:28.731Z,50.68
2022-08-05T19:20:56.262Z,50.96
2022-08-05T19:24:05.320Z,51.19
2022-08-05T19:26:12.763Z,51.87
2022-08-05T19:28:43.937Z,51.79
2022-08-05T19:31:17.722Z,51.88
2022-08-05T19:33:48.246Z,51.34
2022-08-05T19:36:27.173Z,51.32
2022-08-05T19:39:00.621Z,51.63
2022-08-05T19:42:05.415Z,50.48
2022-08-05T19:44:18.869Z,49.25
2022-08-05T19:46:46.482Z,49.68
2022-08-05T19:49:17.094Z,49.68
2022-08-05T19:52:05.975Z,50.14
2022-08-05T19:54:35.254Z,49.87
2022-08-05T19:57:06.692Z,49.68
2022-08-05T20:00:00.994Z,51.09
2022-08-05T20:02:27.100Z,51.92
2022-08-05T20:04:59.019Z,51.99
2022-08-05T20:07:46.486Z,53.58
2022-08-05T20:10:17.522Z,53.04
2022-08-05T20:12:49.236Z,53.76
2022-08-05T20:15:48.561Z,55.98
2022-08-05T20:18:33.711Z,56.23
2022-08-05T20:20:58.076Z,55.04
2022-08-05T20:23:39.602Z,55.95
2022-08-05T20:26:17.090Z,56.42
2022-08-05T20:28:51.389Z,56.63
2022-08-05T20:31:36.861Z,58.06
2022-08-05T20:34:10.730Z,57.74
2022-08-05T20:36:39.163Z,59.26
2022-08-05T20:39:16.105Z,59.86
2022-08-05T20:41:45.341Z,59.94
2022-08-05T20:44:29.156Z,59.39
2022-08-05T20:47:03.610Z,58.95
2022-08-05T20:49:33.181Z,57.60
2022-08-05T20:52:05.791Z,58.43
2022-08-05T20:54:59.087Z,60.21
2022-08-05T20:57:43.868Z,62.13
2022-08-05T21:00:41.591Z,61.72
2022-08-05T21:03:06.992Z,61.44
2022-08-05T21:05:47.713Z,61.32
2022-08-05T21:08:35.951Z,61.02
2022-08-05T21:12:07.443Z,60.01
2022-08-05T21:14:01.452Z,58.82
2022-08-05T21:16:30.782Z,58.79
2022-08-05T21:19:00.649Z,59.07
2022-08-05T21:21:39.639Z,58.04
2022-08-05T21:24:13.552Z,58.37
2022-08-05T21:26:47.383Z,58.20
2022-08-05T21:29:26.657Z,58.86
2022-08-05T21:32:00.212Z,57.62
2022-08-05T21:34:31.604Z,58.21
2022-08-05T21:36:59.153Z,59.07
2022-08-05T21:39:29.515Z,59.33
2022-08-05T21:42:02.073Z,59.86
2022-08-05T21:44:30.464Z,60.68
2022-08-05T21:47:01.376Z,60.42
2022-08-05T21:49:48.018Z,60.77
2022-08-05T21:52:28.047Z,60.55
2022-08-05T21:54:57.804Z,60.12
2022-08-05T21:57:36.108Z,59.99
2022-08-05T22:00:12.329Z,61.01
2022-08-05T22:02:44.002Z,62.59
2022-08-05T22:05:13.633Z,62.85
2022-08-05T22:07:59.134Z,64.16
2022-08-05T22:10:30.973Z,64.67
2022-08-05T22:13:09.279Z,65.73
2022-08-05T22:15:56.629Z,67.14
2022-08-05T22:18:33.889Z,67.63
2022-08-05T22:21:04.739Z,68.19
2022-08-05T22:24:02.539Z,68.48
2022-08-05T22:26:54.411Z,68.73
2022-08-05T22:29:26.758Z,69.12
2022-08-05T22:31:59.570Z,69.53
2022-08-05T22:34:30.229Z,70.18
2022-08-05T22:36:58.350Z,71.53
2022-08-05T22:39:33.716Z,71.75
2022-08-05T22:42:12.553Z,73.58
2022-08-05T22:44:53.403Z,74.41
2022-08-05T22:47:28.954Z,74.85
2022-08-05T22:50:20.708Z,74.99
2022-08-05T22:52:52.770Z,74.09
2022-08-05T22:55:21.916Z,74.12
2022-08-05T22:57:53.738Z,74.00
2022-08-05T23:00:23.560Z,74.59
2022-08-05T23:02:53.636Z,73.62
2022-08-05T23:05:22.472Z,73.18
2022-08-05T23:07:51.281Z,73.32
2022-08-05T23:10:23.543Z,73.95
2022-08-05T23:12:54.701Z,74.32
2022-08-05T23:15:30.043Z,74.42
2022-08-05T23:18:05.877Z,75.00
2022-08-05T23:20:39.356Z,76.07
2022-08-05T23:23:09.588Z,76.15
2022-08-05T23:25:51.590Z,76.19
2022-08-05T23:28:21.971Z,75.91
2022-08-05T23:30:53.768Z,76.90
2022-08-05T23:33:26.249Z,78.12
2022-08-05T23:36:13.570Z,78.65
2022-08-05T23:38:41.988Z,79.22
2022-08-05T23:41:10.745Z,80.76
2022-08-05T23:44:04.823Z,80.37
2022-08-05T23:46:25.711Z,79.67
2022-08-05T23:49:00.658Z,80.15
2022-08-05T23:51:53.506Z,80.96
2022-08-05T23:54:38.527Z,80.85
2022-08-05T23:57:07.213Z,81.66
